Time;durP1;ratioP1;P1;durP2;ratioP2;P2;SDS_P1;SDS_P2;PMS_P1;PMS_P2;Temp;Humidity;BMP_temperature;BMP_pressure;BME280_temperature;BME280_humidity;BME280_pressure;Samples;Min_cycle;Max_cycle;Signal;HPM_P1;HPM_P2
2022/03/17 00:57:52;;;;;;;51.43;35.43;;;;;;;2.34;100.00;102089.84;15189529;19;2930785;-53
2022/03/17 01:02:58;;;;;;;46.60;34.07;;;;;;;2.30;100.00;102095.97;15343796;19;20161;-53
2022/03/17 01:08:03;;;;;;;45.37;32.80;;;;;;;2.20;100.00;102104.78;15318751;19;20265;-53
2022/03/17 01:23:04;;;;;;;47.03;31.87;;;;;;;1.92;100.00;102103.06;15189600;19;2936978;-53
2022/03/17 01:33:06;;;;;;;39.97;29.73;;;;;;;1.68;100.00;102110.09;15311821;19;20531;-53
2022/03/17 02:42:30;;;;;;;45.80;31.60;;;;;;;-0.25;100.00;102137.16;15321161;19;20509;-52
2022/03/17 02:57:23;;;;;;;50.83;36.20;;;;;;;-0.40;100.00;102146.63;15184348;19;2940019;-52
2022/03/17 03:47:10;;;;;;;51.10;32.77;;;;;;;-0.67;100.00;102196.13;15309180;19;20458;-54
2022/03/17 04:26:58;;;;;;;57.73;37.50;;;;;;;-0.56;100.00;102239.09;15338328;19;20501;-52
2022/03/17 04:46:53;;;;;;;44.87;30.50;;;;;;;-0.79;100.00;102251.03;15338214;19;20506;-52
2022/03/17 05:16:45;;;;;;;45.47;32.37;;;;;;;-0.60;100.00;102271.38;15305651;19;20477;-53
2022/03/17 05:51:25;;;;;;;44.17;31.70;;;;;;;0.24;100.00;102307.31;15296742;19;20467;-54
2022/03/17 05:56:29;;;;;;;51.33;34.03;;;;;;;0.72;100.00;102311.25;15296461;19;20191;-55
2022/03/17 06:01:35;;;;;;;46.33;33.87;;;;;;;1.15;100.00;102311.56;15269651;19;20159;-54
2022/03/17 06:06:40;;;;;;;46.00;32.97;;;;;;;1.56;100.00;102320.56;15286904;19;20217;-54
2022/03/17 06:11:44;;;;;;;49.93;34.90;;;;;;;1.90;100.00;102325.97;15296022;19;20156;-53
2022/03/17 06:36:37;;;;;;;45.47;33.00;;;;;;;3.13;100.00;102326.97;15293394;19;21469;-54
2022/03/17 06:51:34;;;;;;;38.83;29.77;;;;;;;3.78;100.00;102349.63;15170906;19;2940336;-52
2022/03/17 06:56:41;;;;;;;39.50;28.77;;;;;;;4.02;100.00;102353.06;15341309;19;20147;-54
2022/03/17 07:06:43;;;;;;;43.17;30.07;;;;;;;4.34;100.00;102359.06;15321475;19;20488;-54
2022/03/17 07:11:47;;;;;;;41.13;29.33;;;;;;;4.54;100.00;102367.75;15321082;19;20706;-53
2022/03/17 07:16:52;;;;;;;45.07;30.83;;;;;;;4.64;100.00;102379.13;15345244;19;20144;-53
2022/03/17 07:31:49;;;;;;;33.77;26.87;;;;;;;5.12;100.00;102383.16;15158014;19;2948099;-52
2022/03/17 07:41:51;;;;;;;35.60;27.53;;;;;;;5.40;100.00;102392.59;15340320;19;20872;-53
2022/03/17 07:51:54;;;;;;;33.43;26.17;;;;;;;5.79;100.00;102403.69;15322788;19;20512;-52
2022/03/17 08:01:57;;;;;;;34.53;27.70;;;;;;;6.05;100.00;102412.22;15340519;19;20539;-54
2022/03/17 08:07:03;;;;;;;33.80;27.23;;;;;;;6.28;100.00;102419.03;15344880;19;20152;-52
2022/03/17 08:12:08;;;;;;;38.63;28.53;;;;;;;6.38;100.00;102418.88;15342483;19;20155;-53
2022/03/17 08:32:08;;;;;;;33.37;27.43;;;;;;;6.95;100.00;102418.06;15340721;19;20529;-53
2022/03/17 08:52:07;;;;;;;37.67;28.53;;;;;;;7.44;100.00;102423.41;15340719;19;20476;-53
2022/03/17 08:57:11;;;;;;;34.73;28.70;;;;;;;7.57;100.00;102440.91;15346647;19;20151;-54
2022/03/17 09:02:16;;;;;;;33.90;26.80;;;;;;;7.67;100.00;102430.97;15313790;19;20142;-53
2022/03/17 09:07:21;;;;;;;33.20;25.50;;;;;;;7.78;100.00;102435.19;15333895;19;20179;-54
2022/03/17 09:12:27;;;;;;;35.47;27.90;;;;;;;7.84;100.00;102442.19;15345697;19;20214;-53
2022/03/17 09:32:24;;;;;;;29.03;24.67;;;;;;;8.44;100.00;102436.56;15341698;19;20484;-53
2022/03/17 09:42:26;;;;;;;33.40;23.73;;;;;;;8.57;100.00;102441.53;15340404;19;20477;-54
2022/03/17 09:52:30;;;;;;;33.43;25.67;;;;;;;8.65;100.00;102447.59;15329594;19;20509;-53
2022/03/17 09:57:36;;;;;;;31.37;23.20;;;;;;;8.88;100.00;102455.06;15344015;19;20148;-54
2022/03/17 10:02:41;;;;;;;23.30;20.33;;;;;;;9.17;100.00;102446.38;15346796;19;20624;-53
2022/03/17 10:07:47;;;;;;;30.03;22.87;;;;;;;9.33;100.00;102446.84;15323142;19;20132;-54
2022/03/17 10:13:08;;;;;;;24.80;20.67;;;;;;;9.35;100.00;102434.38;15322112;19;21082;-54
2022/03/17 10:18:25;;;;;;;25.80;20.27;;;;;;;9.37;100.00;102443.22;15345781;19;20151;-53
2022/03/17 10:23:29;;;;;;;24.30;19.50;;;;;;;9.58;100.00;102441.78;15344514;19;20606;-53
2022/03/17 10:33:34;;;;;;;22.17;19.70;;;;;;;9.75;100.00;102434.22;15311585;19;21148;-53
2022/03/17 10:38:45;;;;;;;23.60;19.83;;;;;;;9.63;100.00;102435.44;15339493;19;20189;-53
2022/03/17 10:49:07;;;;;;;18.77;16.50;;;;;;;9.77;90.92;102423.53;15340857;19;20498;-53
2022/03/17 10:54:18;;;;;;;19.77;15.67;;;;;;;9.81;94.20;102427.81;15318175;19;20144;-54
2022/03/17 10:59:22;;;;;;;27.27;17.50;;;;;;;9.82;91.61;102422.44;15331921;19;20154;-53
2022/03/17 11:04:27;;;;;;;18.17;14.27;;;;;;;9.94;90.19;102415.91;15344230;19;20141;-53
2022/03/17 11:09:32;;;;;;;15.30;13.70;;;;;;;10.19;92.11;102425.00;15343447;19;20141;-53
2022/03/17 11:14:47;;;;;;;19.47;14.57;;;;;;;10.53;87.64;102426.66;15329103;19;20168;-54
2022/03/17 11:25:36;;;;;;;17.13;13.90;;;;;;;11.41;83.43;102411.31;15340448;19;20482;-54
2022/03/17 11:30:49;;;;;;;17.27;14.23;;;;;;;11.99;79.75;102419.94;15345700;19;20520;-53
2022/03/17 11:36:03;;;;;;;19.20;15.50;;;;;;;12.48;77.03;102418.97;15339605;19;20144;-54
2022/03/17 11:41:08;;;;;;;19.83;15.03;;;;;;;13.04;75.74;102429.22;15314076;19;20140;-54
2022/03/17 11:46:16;;;;;;;21.23;17.87;;;;;;;12.98;73.75;102440.22;15338049;19;20182;-54
2022/03/17 11:51:22;;;;;;;15.87;14.17;;;;;;;13.08;73.61;102436.22;15344186;19;20734;-54
2022/03/17 11:56:45;;;;;;;19.80;17.03;;;;;;;12.65;71.27;102430.84;15344476;19;20216;-54
2022/03/17 12:01:50;;;;;;;16.83;15.13;;;;;;;12.79;73.97;102423.16;15313725;19;20143;-54
2022/03/17 12:06:56;;;;;;;18.23;15.83;;;;;;;13.23;69.57;102424.03;15328581;19;20149;-54
2022/03/17 12:12:01;;;;;;;16.00;14.33;;;;;;;13.42;68.33;102424.13;15343310;19;20132;-54
2022/03/17 12:17:08;;;;;;;16.23;14.70;;;;;;;14.01;66.81;102426.88;15341847;19;20144;-54
2022/03/17 12:22:15;;;;;;;16.57;14.73;;;;;;;14.06;64.63;102420.38;15324725;19;20176;-54
2022/03/17 12:27:29;;;;;;;18.00;16.03;;;;;;;13.44;65.31;102438.34;15311480;19;20141;-54
2022/03/17 12:32:36;;;;;;;17.60;15.40;;;;;;;12.82;65.29;102439.97;15324519;19;20145;-55
2022/03/17 12:37:42;;;;;;;15.43;13.77;;;;;;;12.18;64.65;102431.75;15281616;19;20607;-54
2022/03/17 12:42:52;;;;;;;17.13;13.97;;;;;;;12.00;64.15;102426.19;15277223;19;20156;-54
2022/03/17 12:48:00;;;;;;;14.23;12.83;;;;;;;12.16;67.03;102425.56;15249957;19;20140;-54
2022/03/17 12:53:05;;;;;;;14.00;12.37;;;;;;;12.94;64.72;102438.59;15270690;19;20586;-54
2022/03/17 12:58:09;;;;;;;11.43;10.27;;;;;;;13.68;61.15;102438.16;15281632;19;20137;-54
2022/03/17 13:03:21;;;;;;;12.13;10.67;;;;;;;14.13;59.10;102428.16;15276812;19;20141;-55
2022/03/17 13:08:27;;;;;;;12.00;10.80;;;;;;;14.61;55.53;102417.81;15256149;19;20148;-54
2022/03/17 13:18:54;;;;;;;15.13;11.70;;;;;;;13.60;53.35;102415.28;15279468;19;20137;-54
2022/03/17 13:23:58;;;;;;;14.53;12.40;;;;;;;13.11;53.87;102420.03;15274642;19;20179;-54
2022/03/17 13:29:05;;;;;;;13.37;11.43;;;;;;;12.91;55.92;102419.97;15269293;19;20154;-54
2022/03/17 13:34:09;;;;;;;12.50;11.00;;;;;;;12.80;57.77;102419.53;15249605;19;20180;-55
2022/03/17 13:39:14;;;;;;;16.20;11.17;;;;;;;12.53;56.58;102400.94;15273209;19;20144;-54
2022/03/17 13:44:19;;;;;;;12.00;10.70;;;;;;;12.77;59.61;102422.34;15270928;19;20610;-54
2022/03/17 13:49:27;;;;;;;11.40;10.30;;;;;;;12.87;57.49;102415.66;15277559;19;20207;-54
2022/03/17 13:54:40;;;;;;;12.97;9.80;;;;;;;12.13;55.15;102404.25;15247701;19;20179;-54
2022/03/17 13:59:45;;;;;;;12.17;10.70;;;;;;;11.78;57.25;102416.25;15263321;19;20507;-54
2022/03/17 14:04:57;;;;;;;11.57;10.37;;;;;;;11.31;59.09;102414.34;15272533;19;20472;-54
2022/03/17 14:10:02;;;;;;;12.77;11.27;;;;;;;10.83;58.93;102412.34;15276191;19;20593;-54
2022/03/17 14:15:07;;;;;;;12.50;9.70;;;;;;;10.54;60.22;102410.59;15257160;19;20668;-53
2022/03/17 14:20:12;;;;;;;11.40;9.37;;;;;;;10.62;62.85;102410.38;15249747;19;20181;-54
2022/03/17 14:25:17;;;;;;;11.93;9.43;;;;;;;10.94;61.42;102404.88;15271006;19;20149;-54
2022/03/17 14:30:22;;;;;;;10.77;9.63;;;;;;;11.16;61.60;102413.94;15273881;19;20196;-54
2022/03/17 14:35:26;;;;;;;24.40;10.10;;;;;;;11.28;60.96;102409.09;15272129;19;20290;-54
2022/03/17 14:40:31;;;;;;;12.07;10.63;;;;;;;11.24;59.99;102402.09;15239952;19;20152;-54
2022/03/17 14:45:37;;;;;;;14.33;10.73;;;;;;;10.55;59.55;102404.34;15258079;19;20513;-54
2022/03/17 14:50:42;;;;;;;22.47;11.03;;;;;;;10.05;63.09;102384.47;15267989;19;20627;-54
2022/03/17 14:55:48;;;;;;;12.90;9.90;;;;;;;9.89;64.07;102404.50;15265628;19;20172;-54
2022/03/17 15:00:54;;;;;;;13.60;10.37;;;;;;;9.67;64.41;102407.75;15245673;19;20169;-54
2022/03/17 15:05:59;;;;;;;13.47;9.93;;;;;;;9.59;65.17;102406.22;15250764;19;20624;-54
2022/03/17 15:11:04;;;;;;;11.43;9.17;;;;;;;9.57;66.01;102408.91;15267545;19;20152;-54
2022/03/17 15:16:09;;;;;;;9.10;8.13;;;;;;;9.53;63.52;102420.59;15267874;19;20141;-54
2022/03/17 15:21:14;;;;;;;10.00;7.87;;;;;;;9.46;62.74;102426.97;15255978;19;20304;-54
2022/03/17 15:26:19;;;;;;;9.70;8.13;;;;;;;9.33;65.50;102414.88;15238950;19;20240;-54
2022/03/17 15:31:26;;;;;;;8.80;7.87;;;;;;;9.23;64.43;102413.38;15262547;19;20610;-53
2022/03/17 15:36:30;;;;;;;11.47;8.53;;;;;;;8.99;65.99;102421.06;15266361;19;20149;-54
2022/03/17 15:41:35;;;;;;;14.10;9.07;;;;;;;8.81;68.11;102420.63;15262350;19;20538;-53
2022/03/17 15:46:40;;;;;;;12.47;8.07;;;;;;;8.57;66.87;102422.91;15239113;19;20176;-53
2022/03/17 15:51:46;;;;;;;12.67;8.17;;;;;;;8.21;64.82;102418.38;15253033;19;20161;-53
2022/03/17 15:56:51;;;;;;;15.73;8.67;;;;;;;7.90;66.40;102429.63;15265734;19;20176;-54
2022/03/17 16:01:55;;;;;;;22.00;9.07;;;;;;;7.65;67.33;102432.78;15264084;19;20140;-53
2022/03/17 16:07:00;;;;;;;13.37;7.97;;;;;;;7.35;69.84;102440.41;15250309;19;20162;-53
2022/03/17 16:17:07;;;;;;;11.03;7.10;;;;;;;6.83;73.00;102443.88;15339896;19;20438;-53
2022/03/17 16:22:14;;;;;;;28.17;9.53;;;;;;;6.57;74.91;102448.69;15342584;19;20229;-53
2022/03/17 16:27:18;;;;;;;16.33;8.67;;;;;;;6.37;76.37;102456.03;15343307;19;21134;-52
2022/03/17 16:32:23;;;;;;;12.40;8.23;;;;;;;6.16;76.51;102461.59;15311604;19;20599;-54
2022/03/17 16:37:28;;;;;;;11.53;8.50;;;;;;;5.92;78.14;102463.59;15333380;19;20492;-53
2022/03/17 16:42:32;;;;;;;28.53;16.67;;;;;;;5.75;77.91;102465.53;15341090;19;20499;-54
2022/03/17 16:47:37;;;;;;;14.77;10.63;;;;;;;5.61;79.16;102467.44;15339751;19;20164;-55
2022/03/17 17:02:34;;;;;;;18.87;9.50;;;;;;;5.18;78.14;102482.81;15341096;19;20530;-53
2022/03/17 17:12:36;;;;;;;8.70;6.47;;;;;;;4.77;80.35;102481.31;15335774;19;20558;-53
2022/03/17 17:30:40;;;;;;;19.23;9.00;;;;;;;4.41;80.98;102495.59;15324728;19;20520;-52
2022/03/17 17:52:48;;;;;;;20.37;11.90;;;;;;;3.59;83.28;102531.00;15337593;19;20515;-50
2022/03/17 17:57:58;;;;;;;16.27;9.90;;;;;;;3.45;83.71;102535.41;15331496;19;20598;-51
2022/03/17 18:42:43;;;;;;;12.63;8.23;;;;;;;2.96;94.71;102558.19;15320161;19;20507;-56
2022/03/17 18:47:48;;;;;;;13.83;7.90;;;;;;;2.96;95.19;102563.44;15302475;19;20230;-57
2022/03/17 18:57:50;;;;;;;14.18;10.05;;;;;;;2.99;93.83;102567.88;15316766;19;20375;-54
2022/03/17 19:02:55;;;;;;;12.57;8.60;;;;;;;2.84;93.20;102556.38;15295864;19;20170;-53
2022/03/17 19:08:00;;;;;;;13.50;7.93;;;;;;;2.81;92.39;102560.75;15269566;19;20189;-54
2022/03/17 19:52:42;;;;;;;12.90;6.17;;;;;;;2.00;88.02;102606.88;15274694;19;20481;-51
2022/03/17 20:42:43;;;;;;;21.20;11.80;;;;;;;1.39;92.01;102653.69;15290984;19;20991;-52
2022/03/17 20:57:43;;;;;;;19.03;11.63;;;;;;;1.15;91.70;102677.06;15297299;19;20497;-52
2022/03/17 22:02:19;;;;;;;25.47;14.53;;;;;;;1.00;91.21;102717.19;15303462;19;20482;-51
2022/03/17 22:57:04;;;;;;;27.47;14.77;;;;;;;0.31;100.00;102791.47;15325402;19;20501;-50
